Time;durP1;ratioP1;P1;durP2;ratioP2;P2;SDS_P1;SDS_P2;PMS_P1;PMS_P2;Temp;Humidity;BMP_temperature;BMP_pressure;BME280_temperature;BME280_humidity;BME280_pressure;Samples;Min_cycle;Max_cycle;Signal;HPM_P1;HPM_P2
2021/07/17 00:02:54;;;;;;;5.80;3.65;;;;;;;21.63;72.88;100404.59;4862173;29;20060;-74
2021/07/17 00:05:58;;;;;;;5.55;3.42;;;;;;;21.67;72.81;100404.03;4862378;29;20061;-74
2021/07/17 00:09:06;;;;;;;7.80;3.88;;;;;;;21.65;72.86;100399.81;4861884;29;20066;-74
2021/07/17 00:12:10;;;;;;;6.20;3.85;;;;;;;21.67;72.05;100394.97;4861057;29;20068;-74
2021/07/17 00:15:18;;;;;;;4.15;3.25;;;;;;;21.70;71.59;100394.56;4851078;29;20505;-74
2021/07/17 00:18:23;;;;;;;5.35;3.10;;;;;;;21.73;71.47;100399.59;4862203;29;20052;-74
2021/07/17 00:21:27;;;;;;;6.75;3.40;;;;;;;21.70;70.84;100391.84;4862011;29;20072;-74
2021/07/17 00:24:32;;;;;;;8.15;3.20;;;;;;;21.65;70.94;100386.97;4861872;29;20061;-74
2021/07/17 00:27:36;;;;;;;4.47;3.53;;;;;;;21.67;70.77;100394.97;4862077;29;20049;-75
2021/07/17 00:30:41;;;;;;;5.43;2.90;;;;;;;21.65;70.42;100386.97;4861796;29;20056;-74
2021/07/17 00:33:45;;;;;;;3.88;2.92;;;;;;;21.62;70.55;100384.66;4849715;29;20537;-74
2021/07/17 00:36:50;;;;;;;4.03;2.90;;;;;;;21.67;69.93;100389.50;4861966;29;20072;-74
2021/07/17 00:39:54;;;;;;;6.40;3.08;;;;;;;21.65;70.15;100391.63;4850294;29;20057;-74
2021/07/17 00:42:59;;;;;;;3.70;2.90;;;;;;;21.69;69.83;100384.69;4861901;29;20481;-74
2021/07/17 00:46:03;;;;;;;5.97;3.08;;;;;;;21.71;69.83;100382.56;4861679;29;20052;-74
2021/07/17 00:49:08;;;;;;;6.22;3.10;;;;;;;21.71;70.09;100382.56;4861523;29;20053;-74
2021/07/17 00:52:12;;;;;;;4.38;2.83;;;;;;;21.67;70.26;100378.59;4861749;29;20053;-74
2021/07/17 00:55:20;;;;;;;4.15;3.17;;;;;;;21.69;70.47;100384.69;4862170;29;20073;-74
2021/07/17 00:58:32;;;;;;;6.32;3.40;;;;;;;21.60;70.76;100375.84;4850463;29;20069;-74
2021/07/17 01:01:36;;;;;;;4.55;3.20;;;;;;;21.59;70.99;100376.03;4861606;29;20159;-74
2021/07/17 01:04:41;;;;;;;6.10;3.33;;;;;;;21.53;71.28;100377.69;4861528;29;20057;-74
2021/07/17 01:07:46;;;;;;;5.50;3.95;;;;;;;21.51;71.60;100373.47;4879097;29;20060;-74
2021/07/17 01:10:51;;;;;;;5.53;3.80;;;;;;;21.46;71.77;100375.97;4879995;29;20060;-74
2021/07/17 01:13:56;;;;;;;6.68;3.78;;;;;;;21.47;72.17;100381.25;4868372;29;20056;-74
2021/07/17 01:17:00;;;;;;;9.20;3.60;;;;;;;21.48;71.98;100372.00;4880493;29;20056;-74
2021/07/17 01:20:08;;;;;;;6.75;3.70;;;;;;;21.48;72.21;100371.16;4880366;29;20126;-74
2021/07/17 01:23:12;;;;;;;6.20;3.67;;;;;;;21.47;72.26;100367.59;4868660;29;20064;-74
2021/07/17 01:26:17;;;;;;;4.95;3.50;;;;;;;21.47;72.41;100367.59;4880147;29;20060;-74
2021/07/17 01:29:21;;;;;;;4.53;2.92;;;;;;;21.54;72.34;100364.88;4881573;29;20385;-74
2021/07/17 01:32:26;;;;;;;4.22;3.63;;;;;;;21.52;72.39;100362.34;4883020;29;20056;-74
2021/07/17 01:35:30;;;;;;;6.32;3.35;;;;;;;21.49;72.16;100359.19;4883633;29;20397;-74
2021/07/17 01:38:35;;;;;;;4.07;3.40;;;;;;;21.51;72.30;100359.81;4883507;29;20059;-74
2021/07/17 01:41:39;;;;;;;4.80;3.35;;;;;;;21.50;72.11;100358.16;4871671;29;20056;-74
2021/07/17 01:44:45;;;;;;;7.63;3.97;;;;;;;21.56;71.50;100352.69;4883360;29;20056;-74
2021/07/17 01:47:49;;;;;;;5.65;3.20;;;;;;;21.62;71.42;100353.78;4882111;29;20073;-74
2021/07/17 01:50:54;;;;;;;5.10;3.05;;;;;;;21.65;71.31;100356.09;4882809;29;20060;-74
2021/07/17 01:54:00;;;;;;;8.27;3.42;;;;;;;21.63;70.90;100349.97;4883223;29;20059;-74
2021/07/17 01:57:06;;;;;;;7.05;3.45;;;;;;;21.63;70.88;100348.09;4883149;29;20515;-74
2021/07/17 02:00:11;;;;;;;7.03;3.03;;;;;;;21.66;70.96;100338.63;4883157;29;20064;-74
2021/07/17 02:03:15;;;;;;;5.30;3.28;;;;;;;21.63;70.69;100349.97;4883048;29;20115;-74
2021/07/17 02:06:29;;;;;;;9.10;3.30;;;;;;;21.59;70.27;100349.56;4882966;29;20057;-74
2021/07/17 02:09:35;;;;;;;4.72;2.92;;;;;;;21.61;71.05;100346.59;4882747;29;20052;-74
2021/07/17 02:12:58;;;;;;;7.00;3.00;;;;;;;21.64;70.73;100343.47;4882455;29;20060;-74
2021/07/17 02:16:03;;;;;;;4.37;2.80;;;;;;;21.66;70.78;100352.28;4882696;29;20060;-74
2021/07/17 02:19:18;;;;;;;5.97;3.15;;;;;;;21.65;70.85;100336.97;4882839;29;20389;-74
2021/07/17 02:22:22;;;;;;;5.28;3.10;;;;;;;21.65;70.94;100340.50;4882447;29;20421;-74
2021/07/17 02:25:27;;;;;;;6.07;2.90;;;;;;;21.66;70.69;100334.00;4882737;29;20067;-74
2021/07/17 02:28:32;;;;;;;4.57;2.95;;;;;;;21.67;70.48;100334.88;4882594;29;20382;-74
2021/07/17 02:31:37;;;;;;;5.55;3.80;;;;;;;21.63;69.78;100328.09;4882118;29;20060;-74
2021/07/17 02:34:42;;;;;;;7.63;3.17;;;;;;;21.59;69.99;100324.97;4870707;29;20397;-74
2021/07/17 02:37:46;;;;;;;5.53;2.83;;;;;;;21.55;70.14;100331.91;4881898;29;20060;-74
2021/07/17 02:40:50;;;;;;;6.90;2.95;;;;;;;21.49;70.36;100337.31;4882218;29;20060;-74
2021/07/17 02:43:56;;;;;;;7.13;2.83;;;;;;;21.51;70.47;100329.75;4881835;29;20060;-74
2021/07/17 02:47:00;;;;;;;4.65;2.58;;;;;;;21.51;70.37;100322.41;4881990;29;20056;-74
2021/07/17 02:50:06;;;;;;;4.78;2.95;;;;;;;21.52;70.04;100307.72;4882040;29;20495;-74
2021/07/17 02:53:10;;;;;;;3.97;2.53;;;;;;;21.50;70.11;100300.78;4881923;29;20055;-74
2021/07/17 02:56:15;;;;;;;3.88;2.60;;;;;;;21.47;70.35;100304.78;4870747;29;20063;-74
2021/07/17 02:59:19;;;;;;;4.78;2.55;;;;;;;21.45;70.06;100297.84;4881850;29;20044;-74
2021/07/17 03:02:24;;;;;;;7.30;3.05;;;;;;;21.40;69.92;100299.28;4870097;29;20052;-75
2021/07/17 03:05:28;;;;;;;9.43;3.10;;;;;;;21.40;70.08;100302.00;4881436;29;20052;-74
2021/07/17 03:08:33;;;;;;;5.32;2.88;;;;;;;21.43;69.83;100299.94;4881698;29;20056;-74
2021/07/17 03:11:37;;;;;;;5.50;2.63;;;;;;;21.40;70.31;100290.25;4881554;29;20123;-74
2021/07/17 03:14:42;;;;;;;4.90;2.65;;;;;;;21.42;70.45;100298.22;4881240;29;20056;-74
2021/07/17 03:17:46;;;;;;;5.82;2.50;;;;;;;21.43;70.08;100294.47;4881310;29;20056;-74
2021/07/17 03:20:51;;;;;;;4.95;2.95;;;;;;;21.42;70.58;100292.78;4881617;29;20108;-74
2021/07/17 03:23:55;;;;;;;4.32;2.72;;;;;;;21.32;70.91;100290.44;4881573;29;20063;-74
2021/07/17 03:26:59;;;;;;;4.13;2.78;;;;;;;21.28;70.82;100292.72;4881800;29;20512;-74
2021/07/17 03:30:06;;;;;;;5.55;1.90;;;;;;;21.27;70.31;100291.06;4881453;29;20073;-74
2021/07/17 03:33:11;;;;;;;4.80;2.53;;;;;;;21.23;70.42;100295.22;4880782;29;20060;-74
2021/07/17 03:36:15;;;;;;;3.03;1.98;;;;;;;21.19;70.77;100277.59;4881198;29;20072;-74
2021/07/17 03:39:19;;;;;;;6.93;3.08;;;;;;;21.20;70.36;100282.00;4880220;29;20056;-74
2021/07/17 03:42:23;;;;;;;4.38;1.90;;;;;;;21.21;70.25;100275.47;4881256;29;20061;-74
2021/07/17 03:45:28;;;;;;;3.67;2.00;;;;;;;21.21;69.83;100274.63;4881027;29;20064;-74
2021/07/17 03:48:33;;;;;;;5.65;2.20;;;;;;;21.23;69.77;100269.84;4869752;29;20068;-74
2021/07/17 03:51:37;;;;;;;2.67;1.80;;;;;;;21.24;69.70;100263.31;4880415;29;20056;-74
2021/07/17 03:54:42;;;;;;;4.53;2.35;;;;;;;21.23;69.35;100261.66;4880868;29;20060;-74
2021/07/17 03:57:46;;;;;;;4.60;2.17;;;;;;;21.23;69.48;100276.13;4869618;29;20492;-74
2021/07/17 04:00:50;;;;;;;3.45;2.00;;;;;;;21.22;69.16;100266.25;4880845;29;20052;-74
2021/07/17 04:03:55;;;;;;;3.17;1.95;;;;;;;21.16;69.18;100274.41;4881105;29;20176;-74
2021/07/17 04:07:00;;;;;;;4.57;2.03;;;;;;;21.13;69.35;100263.91;4859501;29;20056;-74
2021/07/17 04:10:06;;;;;;;6.38;2.20;;;;;;;21.16;69.13;100256.16;4869191;29;20056;-74
2021/07/17 04:13:11;;;;;;;3.53;1.83;;;;;;;21.21;69.54;100260.97;4879343;29;20535;-74
2021/07/17 04:16:15;;;;;;;5.57;2.15;;;;;;;21.22;69.19;100244.41;4880858;29;20055;-74
2021/07/17 04:19:20;;;;;;;6.07;2.05;;;;;;;21.29;68.93;100249.88;4869261;29;20532;-74
2021/07/17 04:22:24;;;;;;;8.02;2.30;;;;;;;21.29;68.35;100242.53;4880698;29;20064;-74
2021/07/17 04:25:29;;;;;;;8.70;2.08;;;;;;;21.46;68.29;100248.44;4880262;29;20052;-73
2021/07/17 04:28:34;;;;;;;4.05;2.20;;;;;;;21.58;67.55;100248.69;4880387;29;20079;-74
2021/07/17 04:31:38;;;;;;;4.68;1.95;;;;;;;21.81;66.97;100247.22;4880268;29;20052;-74
2021/07/17 04:34:43;;;;;;;5.30;2.20;;;;;;;22.04;65.72;100241.38;4879790;29;20060;-74
2021/07/17 04:37:48;;;;;;;4.38;1.70;;;;;;;22.23;64.89;100232.31;4880414;29;20061;-74
2021/07/17 04:40:52;;;;;;;3.50;1.88;;;;;;;22.41;64.59;100224.28;4879851;29;20048;-74
2021/07/17 04:43:57;;;;;;;3.47;1.90;;;;;;;22.62;63.34;100223.19;4850332;29;20053;-75
2021/07/17 04:47:02;;;;;;;3.88;1.77;;;;;;;22.83;62.36;100219.31;4861608;29;20120;-74
2021/07/17 04:50:07;;;;;;;5.72;1.88;;;;;;;22.96;61.39;100217.34;4861743;29;20088;-74
2021/07/17 04:53:11;;;;;;;4.97;2.10;;;;;;;23.45;60.30;100219.44;4861476;29;20060;-74
2021/07/17 04:56:16;;;;;;;5.50;1.90;;;;;;;23.69;59.27;100209.56;4861640;29;20056;-75
2021/07/17 04:59:20;;;;;;;4.20;1.50;;;;;;;24.25;58.40;100206.75;4860933;29;20056;-74
2021/07/17 05:02:25;;;;;;;3.38;1.67;;;;;;;24.60;56.98;100194.09;4861571;29;20072;-74
2021/07/17 05:05:29;;;;;;;5.60;1.67;;;;;;;25.15;55.33;100195.75;4865664;29;20072;-74
2021/07/17 05:08:33;;;;;;;3.92;1.58;;;;;;;25.51;54.47;100192.03;4865383;29;20057;-74
2021/07/17 05:11:39;;;;;;;5.72;1.65;;;;;;;25.71;53.46;100189.81;4865464;29;20056;-74
2021/07/17 05:14:43;;;;;;;3.33;1.50;;;;;;;25.99;52.61;100182.78;4865474;29;20053;-75
2021/07/17 05:17:47;;;;;;;4.30;1.42;;;;;;;26.29;51.77;100180.78;4873931;29;20515;-74
2021/07/17 05:20:51;;;;;;;2.97;1.20;;;;;;;26.53;50.36;100178.81;4883635;29;20048;-74
2021/07/17 05:23:55;;;;;;;2.65;1.30;;;;;;;26.68;50.34;100179.16;4883902;29;20068;-74
2021/07/17 05:26:59;;;;;;;2.17;1.20;;;;;;;26.99;49.68;100184.22;4883499;29;20072;-75
2021/07/17 05:30:05;;;;;;;3.25;1.25;;;;;;;27.35;49.00;100192.09;4883883;29;20068;-74
2021/07/17 05:33:10;;;;;;;3.85;1.30;;;;;;;27.66;47.98;100194.31;4883039;29;20068;-75
2021/07/17 05:36:14;;;;;;;4.53;1.17;;;;;;;27.33;49.25;100197.00;4883394;29;20052;-74
2021/07/17 05:39:19;;;;;;;3.05;1.15;;;;;;;26.98;49.14;100212.88;4883519;29;20488;-73
2021/07/17 05:42:24;;;;;;;3.85;1.17;;;;;;;26.89;50.29;100222.56;4883637;29;20080;-72
2021/07/17 05:45:29;;;;;;;3.70;1.02;;;;;;;26.97;50.24;100223.03;4883288;29;20048;-74
2021/07/17 05:48:33;;;;;;;3.50;1.23;;;;;;;27.23;48.54;100213.38;4871663;29;20052;-74
2021/07/17 05:51:37;;;;;;;2.20;1.20;;;;;;;27.59;48.05;100218.47;4882818;29;20052;-73
2021/07/17 05:54:42;;;;;;;4.63;1.58;;;;;;;27.78;47.04;100210.78;4883286;29;20056;-73
2021/07/17 05:57:46;;;;;;;3.35;1.10;;;;;;;27.74;46.55;100215.16;4875933;29;20115;-73
2021/07/17 06:00:50;;;;;;;3.47;0.90;;;;;;;27.57;47.36;100209.63;4871197;29;20405;-71
2021/07/17 06:03:54;;;;;;;5.10;1.00;;;;;;;27.51;47.53;100210.59;4882417;29;20064;-72
2021/07/17 06:06:59;;;;;;;3.58;1.10;;;;;;;27.37;47.01;100213.91;4881638;29;20060;-75
2021/07/17 06:10:05;;;;;;;4.05;1.02;;;;;;;27.13;47.28;100220.59;4882958;29;20056;-75
2021/07/17 06:13:09;;;;;;;4.40;1.00;;;;;;;26.88;47.95;100224.53;4871155;29;20056;-74
2021/07/17 06:16:13;;;;;;;1.90;1.00;;;;;;;26.64;48.63;100216.53;4882708;29;20052;-75
2021/07/17 06:19:17;;;;;;;4.47;1.40;;;;;;;26.42;49.08;100214.38;4882151;29;20060;-76
2021/07/17 06:22:22;;;;;;;3.30;1.00;;;;;;;26.24;49.49;100209.03;4882421;29;20064;-74
2021/07/17 06:25:26;;;;;;;3.38;0.98;;;;;;;26.14;49.94;100214.28;4879840;29;20060;-75
2021/07/17 06:28:30;;;;;;;2.35;1.00;;;;;;;25.96;50.37;100219.03;4871010;29;20052;-75
2021/07/17 06:31:35;;;;;;;2.70;1.20;;;;;;;25.86;51.10;100216.84;4868270;29;20401;-73
2021/07/17 06:34:39;;;;;;;2.63;1.10;;;;;;;25.88;51.61;100209.19;4882542;29;20533;-73
2021/07/17 06:37:43;;;;;;;6.18;1.20;;;;;;;25.94;51.71;100212.94;4879791;29;20060;-76
2021/07/17 06:40:48;;;;;;;2.45;1.20;;;;;;;25.99;51.51;100210.28;4879323;29;20060;-76
2021/07/17 06:43:52;;;;;;;15.00;12.23;;;;;;;26.09;50.63;100221.56;4868045;29;20393;-75
2021/07/17 06:46:57;;;;;;;16.77;15.07;;;;;;;26.07;50.88;100219.00;4879953;29;20041;-74
2021/07/17 06:50:03;;;;;;;8.00;6.10;;;;;;;25.92;51.77;100210.44;4879850;29;20049;-74
2021/07/17 06:53:07;;;;;;;2.80;1.17;;;;;;;25.79;51.07;100207.88;4880822;29;20056;-75
2021/07/17 06:56:13;;;;;;;5.15;1.00;;;;;;;25.65;52.09;100214.69;4870272;29;20060;-74
2021/07/17 06:59:17;;;;;;;3.80;1.20;;;;;;;25.54;51.92;100205.34;4881628;29;20060;-76
2021/07/17 07:02:21;;;;;;;2.58;1.08;;;;;;;25.43;52.93;100197.03;4881346;29;20061;-76
2021/07/17 07:05:26;;;;;;;4.15;1.00;;;;;;;25.43;52.55;100203.34;4859916;29;20056;-75
2021/07/17 07:08:30;;;;;;;3.22;1.17;;;;;;;25.47;51.92;100203.75;4881915;29;20060;-76
2021/07/17 07:11:39;;;;;;;2.13;0.85;;;;;;;25.69;51.10;100205.72;4881861;29;20108;-76
2021/07/17 07:14:43;;;;;;;4.28;1.10;;;;;;;25.83;51.25;100203.56;4870341;29;20069;-75
2021/07/17 07:17:47;;;;;;;3.70;1.13;;;;;;;25.82;51.39;100213.72;4881766;29;20075;-75
2021/07/17 07:20:52;;;;;;;5.70;1.30;;;;;;;25.80;51.76;100206.81;4867324;29;20056;-74
2021/07/17 07:23:56;;;;;;;5.25;1.52;;;;;;;25.80;52.11;100207.63;4879084;29;20073;-74
2021/07/17 07:27:02;;;;;;;6.60;1.45;;;;;;;25.69;51.71;100200.22;4878237;29;20071;-74
2021/07/17 07:30:07;;;;;;;4.88;1.30;;;;;;;25.71;51.97;100195.31;4879258;29;20056;-74
2021/07/17 07:33:11;;;;;;;3.15;1.30;;;;;;;25.72;51.98;100212.66;4879479;29;20417;-74
2021/07/17 07:36:16;;;;;;;4.30;1.50;;;;;;;25.78;51.68;100211.69;4870029;29;20060;-74
2021/07/17 07:39:21;;;;;;;4.05;1.20;;;;;;;25.87;52.02;100203.94;4869896;29;20126;-74
2021/07/17 07:42:25;;;;;;;3.80;1.65;;;;;;;25.91;51.71;100197.72;4881094;29;20059;-73
2021/07/17 07:45:30;;;;;;;6.70;1.33;;;;;;;26.01;51.64;100194.38;4881323;29;20060;-75
2021/07/17 07:48:34;;;;;;;2.85;1.63;;;;;;;26.09;51.60;100185.78;4881255;29;20056;-74
2021/07/17 07:51:38;;;;;;;3.88;1.50;;;;;;;26.24;51.25;100175.16;4880931;29;20599;-73
2021/07/17 07:54:45;;;;;;;4.53;1.13;;;;;;;26.51;51.04;100180.97;4869367;29;20052;-73
2021/07/17 07:57:49;;;;;;;3.45;1.10;;;;;;;27.03;49.56;100172.44;4880521;29;20056;-73
2021/07/17 08:00:55;;;;;;;3.47;1.15;;;;;;;27.66;48.49;100175.03;4881032;29;20060;-73
2021/07/17 08:04:00;;;;;;;6.10;1.48;;;;;;;28.00;47.60;100180.53;4880956;29;20056;-74
2021/07/17 08:07:05;;;;;;;3.70;1.45;;;;;;;27.99;46.89;100178.84;4880887;29;20056;-73
2021/07/17 08:10:10;;;;;;;2.80;1.30;;;;;;;27.93;47.72;100191.72;4880814;29;20056;-73
2021/07/17 08:13:14;;;;;;;18.13;16.38;;;;;;;27.69;48.48;100193.84;4880676;29;20497;-74
2021/07/17 08:16:18;;;;;;;14.55;13.07;;;;;;;27.50;48.54;100195.16;4880736;29;20049;-74
2021/07/17 08:19:22;;;;;;;4.53;2.45;;;;;;;27.50;48.65;100200.69;4880820;29;20049;-74
2021/07/17 08:22:27;;;;;;;3.92;1.30;;;;;;;27.49;48.98;100193.47;4869302;29;20044;-74
2021/07/17 08:25:31;;;;;;;5.95;1.30;;;;;;;27.55;48.93;100197.97;4880701;29;20068;-74
2021/07/17 08:28:35;;;;;;;6.22;1.50;;;;;;;27.42;49.27;100194.72;4869249;29;20076;-74
2021/07/17 08:31:40;;;;;;;3.67;1.52;;;;;;;27.32;49.68;100194.50;4868971;29;20056;-74
2021/07/17 08:34:45;;;;;;;4.22;1.48;;;;;;;27.13;50.40;100191.13;4860710;29;20505;-74
2021/07/17 08:37:49;;;;;;;3.08;1.25;;;;;;;26.86;51.29;100193.59;4861420;29;20060;-74
2021/07/17 08:40:57;;;;;;;2.95;1.30;;;;;;;26.87;51.26;100194.44;4861814;29;20048;-74
2021/07/17 08:44:02;;;;;;;3.33;1.63;;;;;;;26.79;52.24;100198.41;4861766;29;20396;-74
2021/07/17 08:47:09;;;;;;;6.95;3.58;;;;;;;26.80;51.79;100202.84;4861999;29;20076;-73
2021/07/17 08:50:17;;;;;;;12.90;9.18;;;;;;;26.87;51.85;100202.72;4861157;29;20076;-74
2021/07/17 08:53:22;;;;;;;5.57;1.95;;;;;;;26.95;51.94;100196.81;4861289;29;20057;-74
2021/07/17 08:56:27;;;;;;;3.30;1.30;;;;;;;27.21;51.01;100187.94;4861879;29;20056;-74
2021/07/17 08:59:32;;;;;;;3.30;1.40;;;;;;;27.37;50.68;100183.56;4861784;29;20072;-74
2021/07/17 09:02:42;;;;;;;6.20;1.50;;;;;;;27.49;51.21;100185.19;4861824;29;20069;-74
2021/07/17 09:05:49;;;;;;;3.83;1.50;;;;;;;27.51;50.45;100191.31;4860904;29;20057;-74
2021/07/17 09:08:53;;;;;;;2.78;1.60;;;;;;;27.41;50.11;100174.56;4861799;29;20489;-74
2021/07/17 09:11:59;;;;;;;5.20;1.65;;;;;;;27.25;50.52;100161.59;4861710;29;20398;-74
2021/07/17 09:15:05;;;;;;;6.72;1.67;;;;;;;27.34;50.39;100170.28;4861691;29;20061;-74
2021/07/17 09:18:10;;;;;;;2.47;1.33;;;;;;;27.16;52.32;100187.84;4861384;29;20056;-75
2021/07/17 09:21:21;;;;;;;4.30;1.38;;;;;;;27.13;52.16;100190.28;4861317;29;20048;-75
2021/07/17 09:24:25;;;;;;;4.35;1.42;;;;;;;26.97;52.75;100194.66;4860768;29;20091;-74
2021/07/17 09:27:29;;;;;;;3.15;1.42;;;;;;;26.92;52.58;100189.88;4861055;29;20056;-74
2021/07/17 09:30:33;;;;;;;5.65;1.27;;;;;;;26.94;53.07;100184.94;4861278;29;20057;-74
2021/07/17 09:33:38;;;;;;;3.60;1.40;;;;;;;27.06;52.20;100182.97;4873185;29;20056;-74
2021/07/17 09:36:55;;;;;;;3.15;1.35;;;;;;;27.11;51.73;100180.31;4879771;29;20521;-75
2021/07/17 09:39:59;;;;;;;4.70;1.40;;;;;;;27.17;52.32;100180.44;4880013;29;20056;-74
2021/07/17 09:43:03;;;;;;;4.75;1.50;;;;;;;27.07;53.12;100183.81;4880023;29;20393;-74
2021/07/17 09:46:21;;;;;;;4.65;1.83;;;;;;;26.88;53.67;100185.94;4879750;29;20069;-74
2021/07/17 09:49:27;;;;;;;5.90;1.48;;;;;;;26.76;53.63;100187.06;4880820;29;20071;-74
2021/07/17 09:52:40;;;;;;;5.03;1.67;;;;;;;26.83;53.66;100174.81;4883085;29;20056;-74
2021/07/17 09:55:45;;;;;;;6.85;1.92;;;;;;;26.72;54.90;100150.88;4883240;29;20068;-74
2021/07/17 09:58:52;;;;;;;9.68;1.50;;;;;;;26.83;54.49;100129.91;4871646;29;20065;-74
2021/07/17 10:01:56;;;;;;;3.45;1.58;;;;;;;26.91;54.27;100126.78;4882542;29;20060;-74
2021/07/17 10:05:01;;;;;;;3.08;1.50;;;;;;;27.04;53.89;100131.97;4882810;29;20056;-74
2021/07/17 10:08:13;;;;;;;4.40;1.50;;;;;;;27.03;54.24;100127.56;4882793;29;20052;-74
2021/07/17 10:11:25;;;;;;;11.63;2.38;;;;;;;27.07;55.01;100114.94;4882115;29;20060;-74
2021/07/17 10:14:33;;;;;;;4.38;2.17;;;;;;;27.23;54.77;100107.78;4882463;29;20053;-74
2021/07/17 10:17:41;;;;;;;17.35;15.55;;;;;;;27.25;54.59;100117.47;4882861;29;20421;-74
2021/07/17 10:20:45;;;;;;;16.45;14.75;;;;;;;27.21;54.61;100119.03;4882586;29;20049;-74
2021/07/17 10:23:50;;;;;;;8.77;6.80;;;;;;;27.03;54.72;100125.59;4882741;29;20049;-73
2021/07/17 10:26:56;;;;;;;6.43;3.33;;;;;;;27.17;54.45;100123.38;4882187;29;20393;-74
2021/07/17 10:30:05;;;;;;;7.65;2.15;;;;;;;27.36;54.70;100129.50;4871226;29;20068;-74
2021/07/17 10:33:10;;;;;;;4.57;1.77;;;;;;;27.57;54.05;100126.03;4862630;29;20065;-73
2021/07/17 10:36:16;;;;;;;6.65;1.67;;;;;;;27.70;53.99;100132.03;4863165;29;20056;-74
2021/07/17 10:39:27;;;;;;;4.47;1.55;;;;;;;27.89;53.91;100132.63;4863034;29;20076;-74
2021/07/17 10:42:31;;;;;;;6.40;1.85;;;;;;;27.97;53.39;100142.41;4863619;29;20056;-74
2021/07/17 10:45:43;;;;;;;6.40;2.17;;;;;;;27.93;53.72;100150.34;4863045;29;20052;-74
2021/07/17 10:48:53;;;;;;;4.38;2.08;;;;;;;28.04;53.25;100148.63;4863554;29;20056;-73
2021/07/17 10:51:58;;;;;;;4.53;2.30;;;;;;;28.20;53.13;100153.25;4863749;29;20061;-74
2021/07/17 10:55:28;;;;;;;6.75;3.85;;;;;;;28.19;52.70;100137.78;4863400;29;20056;-74
2021/07/17 10:58:36;;;;;;;34.85;31.15;;;;;;;28.33;52.62;100130.81;4863307;29;20064;-74
2021/07/17 11:01:56;;;;;;;17.17;15.23;;;;;;;28.44;52.77;100124.34;4863260;29;20045;-74
2021/07/17 11:05:01;;;;;;;8.23;2.95;;;;;;;28.44;51.27;100121.56;4862369;29;20042;-73
2021/07/17 11:08:05;;;;;;;5.28;2.08;;;;;;;28.56;50.72;100124.19;4862870;29;20065;-74
2021/07/17 11:11:28;;;;;;;3.10;1.83;;;;;;;28.86;49.92;100119.06;4863344;29;20052;-74
2021/07/17 11:14:32;;;;;;;5.95;1.80;;;;;;;28.76;50.50;100111.47;4862992;29;20382;-74
2021/07/17 11:17:53;;;;;;;6.97;1.75;;;;;;;28.96;49.93;100100.66;4862255;29;20402;-74
2021/07/17 11:20:59;;;;;;;3.72;1.83;;;;;;;29.27;49.17;100099.06;4863183;29;20057;-74
2021/07/17 11:24:08;;;;;;;4.38;1.38;;;;;;;29.52;48.85;100095.66;4863171;29;20421;-74
2021/07/17 11:27:15;;;;;;;3.58;1.90;;;;;;;29.77;48.38;100086.72;4863072;29;20501;-74
2021/07/17 11:30:21;;;;;;;4.80;1.55;;;;;;;29.91;46.98;100079.63;4862999;29;20060;-74
2021/07/17 11:33:25;;;;;;;5.18;1.42;;;;;;;29.79;46.66;100067.94;4861170;29;20057;-74
2021/07/17 11:36:30;;;;;;;2.45;1.25;;;;;;;29.95;46.33;100062.22;4862878;29;20052;-74
2021/07/17 11:39:37;;;;;;;5.05;1.40;;;;;;;29.94;46.27;100068.03;4862339;29;20501;-74
2021/07/17 11:42:41;;;;;;;8.80;1.25;;;;;;;29.53;45.43;100067.72;4862516;29;20048;-74
2021/07/17 11:45:46;;;;;;;4.22;1.27;;;;;;;29.46;45.88;100071.81;4862472;29;20054;-74
2021/07/17 11:49:04;;;;;;;6.10;1.35;;;;;;;29.16;46.20;100074.31;4862153;29;20057;-75
2021/07/17 11:52:12;;;;;;;2.10;0.90;;;;;;;29.27;45.82;100065.88;4862431;29;20056;-74
2021/07/17 11:55:19;;;;;;;4.60;1.27;;;;;;;29.23;46.35;100064.75;4862335;29;20060;-74
2021/07/17 11:58:23;;;;;;;6.32;1.40;;;;;;;29.20;45.64;100058.88;4861540;29;20072;-74
2021/07/17 12:01:28;;;;;;;9.55;1.33;;;;;;;29.37;44.84;100067.88;4862289;29;20068;-74
2021/07/17 12:04:41;;;;;;;4.68;1.40;;;;;;;29.48;44.21;100055.81;4861484;29;20064;-74
2021/07/17 12:07:47;;;;;;;2.40;1.23;;;;;;;29.52;43.95;100059.69;4862275;29;20061;-74
2021/07/17 12:10:51;;;;;;;2.85;1.10;;;;;;;29.48;43.73;100058.56;4862411;29;20060;-74
2021/07/17 12:14:19;;;;;;;4.00;1.33;;;;;;;29.22;43.62;100068.59;4860436;29;20057;-74
2021/07/17 12:17:24;;;;;;;6.38;1.33;;;;;;;29.19;44.41;100079.28;4862028;29;20056;-74
2021/07/17 12:20:43;;;;;;;4.70;1.10;;;;;;;29.01;44.97;100078.59;4861223;29;20131;-74
2021/07/17 12:23:59;;;;;;;3.40;1.10;;;;;;;28.98;44.86;100087.41;4862069;29;20080;-74
2021/07/17 12:27:04;;;;;;;3.15;1.15;;;;;;;29.15;44.88;100092.00;4862208;29;20381;-74
2021/07/17 12:30:09;;;;;;;7.25;1.02;;;;;;;29.22;45.23;100087.09;4862162;29;20485;-74
2021/07/17 12:33:20;;;;;;;4.40;1.20;;;;;;;29.21;45.40;100083.50;4860808;29;20060;-74
2021/07/17 12:36:29;;;;;;;3.17;1.00;;;;;;;28.83;45.66;100086.41;4861550;29;20065;-74
2021/07/17 12:39:35;;;;;;;3.72;1.00;;;;;;;28.73;45.29;100089.91;4861967;29;20505;-74
2021/07/17 12:42:49;;;;;;;2.38;1.05;;;;;;;28.60;45.93;100086.66;4861901;29;20386;-74
2021/07/17 12:46:15;;;;;;;2.20;0.90;;;;;;;28.53;46.00;100097.94;4861933;29;20056;-74
2021/07/17 12:49:21;;;;;;;4.22;0.98;;;;;;;28.41;46.06;100097.22;4861675;29;20052;-74
2021/07/17 12:52:25;;;;;;;2.83;0.98;;;;;;;28.36;46.88;100098.00;4861689;29;20056;-74
2021/07/17 12:55:29;;;;;;;4.82;1.10;;;;;;;28.32;46.97;100102.34;4861605;29;20060;-74
2021/07/17 12:58:35;;;;;;;5.05;1.00;;;;;;;28.33;46.65;100097.66;4860873;29;20056;-75
2021/07/17 13:01:46;;;;;;;1.83;0.80;;;;;;;28.33;46.51;100093.00;4861597;29;20064;-74
2021/07/17 13:04:53;;;;;;;7.72;1.42;;;;;;;28.43;47.28;100091.44;4861021;29;20072;-74
2021/07/17 13:08:01;;;;;;;2.58;1.20;;;;;;;28.52;47.15;100084.34;4861704;29;20068;-74
2021/07/17 13:11:17;;;;;;;2.60;0.90;;;;;;;28.71;47.31;100086.59;4861479;29;20053;-74
2021/07/17 13:14:24;;;;;;;2.63;1.10;;;;;;;28.81;47.47;100091.38;4861394;29;20067;-75
2021/07/17 13:17:32;;;;;;;4.53;1.33;;;;;;;28.84;47.66;100097.19;4861432;29;20072;-75
2021/07/17 13:20:36;;;;;;;3.97;0.95;;;;;;;28.73;47.42;100098.19;4861691;29;20389;-74
2021/07/17 13:23:50;;;;;;;3.85;1.00;;;;;;;28.71;47.51;100094.88;4860876;29;20052;-74
2021/07/17 13:26:57;;;;;;;4.00;1.00;;;;;;;28.63;48.30;100097.25;4864947;29;20496;-75
2021/07/17 13:30:01;;;;;;;2.90;1.05;;;;;;;28.60;49.13;100103.25;4853820;29;20057;-75
2021/07/17 13:33:09;;;;;;;3.35;1.20;;;;;;;28.33;49.65;100097.66;4872641;29;20413;-75
2021/07/17 13:36:14;;;;;;;12.32;1.38;;;;;;;28.31;49.00;100105.38;4882891;29;20052;-74
2021/07/17 13:39:18;;;;;;;7.93;1.02;;;;;;;28.24;49.21;100104.75;4872113;29;20056;-75
2021/07/17 13:42:24;;;;;;;4.68;1.10;;;;;;;28.27;48.63;100106.97;4883150;29;20052;-74
2021/07/17 13:45:29;;;;;;;5.03;1.10;;;;;;;28.30;48.13;100092.66;4882572;29;20409;-74
2021/07/17 13:48:35;;;;;;;6.20;1.10;;;;;;;28.56;47.50;100093.81;4875178;29;20512;-75
2021/07/17 13:51:40;;;;;;;1.90;0.93;;;;;;;28.75;46.87;100095.16;4882490;29;20048;-74
2021/07/17 13:54:49;;;;;;;6.95;1.40;;;;;;;28.75;47.56;100100.69;4882926;29;20048;-74
2021/07/17 13:58:12;;;;;;;6.80;3.20;;;;;;;28.62;47.69;100101.94;4870875;29;20053;-75
2021/07/17 14:01:19;;;;;;;3.60;1.63;;;;;;;28.60;48.16;100094.94;4881737;29;20072;-75
2021/07/17 14:04:24;;;;;;;4.65;1.30;;;;;;;28.53;47.77;100097.09;4868084;29;20048;-74
2021/07/17 14:07:28;;;;;;;4.38;1.00;;;;;;;28.45;48.76;100106.66;4881443;29;20056;-75
2021/07/17 14:10:33;;;;;;;4.78;1.15;;;;;;;28.32;49.35;100118.06;4875988;29;20586;-74
2021/07/17 14:13:39;;;;;;;6.85;3.78;;;;;;;28.31;49.21;100110.91;4881612;29;20048;-74
2021/07/17 14:16:43;;;;;;;5.50;1.80;;;;;;;28.37;49.18;100107.94;4879122;29;20064;-75
2021/07/17 14:19:48;;;;;;;2.83;1.10;;;;;;;28.49;49.66;100095.94;4881971;29;20404;-73
2021/07/17 14:22:52;;;;;;;7.13;1.13;;;;;;;28.70;48.96;100090.41;4882239;29;20068;-73
2021/07/17 14:25:57;;;;;;;2.83;1.10;;;;;;;28.97;49.18;100088.50;4882358;29;20072;-73